createdAt,value
2023-04-02T07:34:41.654Z,94621.00
2023-04-02T07:34:52.994Z,94621.00
2023-04-02T07:35:04.568Z,94621.00
2023-04-02T07:35:14.623Z,94623.00
2023-04-02T07:35:26.228Z,94623.00
2023-04-02T07:35:37.903Z,94625.00
2023-04-02T07:35:49.706Z,94625.00
2023-04-02T07:36:01.067Z,94625.00
2023-04-02T07:36:12.644Z,94625.00
2023-04-02T07:36:23.987Z,94625.00
2023-04-02T07:36:35.569Z,94625.00
2023-04-02T07:36:46.873Z,94625.00
2023-04-02T07:36:58.444Z,94625.00
2023-04-02T07:37:09.777Z,94621.00
2023-04-02T07:37:21.337Z,94623.00
2023-04-02T07:37:32.659Z,94621.00
2023-04-02T07:37:44.341Z,94621.00
2023-04-02T07:37:55.691Z,94621.00
2023-04-02T07:38:07.277Z,94621.00
2023-04-02T07:38:18.613Z,94623.00
2023-04-02T07:38:30.208Z,94625.00
2023-04-02T07:38:41.525Z,94625.00
2023-04-02T07:38:53.080Z,94623.00
2023-04-02T07:39:04.408Z,94623.00
2023-04-02T07:39:16.041Z,94621.00
2023-04-02T07:39:27.396Z,94623.00
2023-04-02T07:39:40.703Z,94623.00
2023-04-02T07:39:50.010Z,94621.00
2023-04-02T07:40:01.681Z,94623.00
2023-04-02T07:40:12.961Z,94623.00
2023-04-02T07:40:24.557Z,94623.00
2023-04-02T07:40:35.870Z,94623.00
2023-04-02T07:40:47.431Z,94625.00
2023-04-02T07:40:58.751Z,94625.00
2023-04-02T07:41:10.331Z,94621.00
2023-04-02T07:41:21.677Z,94623.00
2023-04-02T07:41:33.261Z,94621.00
2023-04-02T07:41:44.566Z,94627.00
2023-04-02T07:41:56.173Z,94627.00
2023-04-02T07:42:07.473Z,94625.00
2023-04-02T07:42:19.025Z,94627.00
2023-04-02T07:42:30.337Z,94627.00
2023-04-02T07:42:41.905Z,94627.00
2023-04-02T07:42:53.212Z,94625.00
2023-04-02T07:43:04.818Z,94623.00
2023-04-02T07:43:16.133Z,94621.00
2023-04-02T07:43:27.708Z,94625.00
2023-04-02T07:43:39.039Z,94623.00
2023-04-02T07:43:50.627Z,94619.00
2023-04-02T07:44:01.940Z,94625.00
2023-04-02T07:44:13.541Z,94623.00
2023-04-02T07:44:24.902Z,94623.00
2023-04-02T07:44:36.475Z,94623.00
2023-04-02T07:44:47.798Z,94623.00
2023-04-02T07:44:59.377Z,94625.00
2023-04-02T07:45:10.708Z,94625.00
2023-04-02T07:45:22.304Z,94623.00
2023-04-02T07:45:33.837Z,94623.00
2023-04-02T07:45:45.619Z,94623.00
2023-04-02T07:45:56.954Z,94625.00
2023-04-02T07:46:08.534Z,94625.00
2023-04-02T07:46:19.887Z,94623.00
2023-04-02T07:46:31.524Z,94625.00
2023-04-02T07:46:42.871Z,94627.00
2023-04-02T07:46:54.482Z,94623.00
2023-04-02T07:47:05.896Z,94623.00
2023-04-02T07:47:17.501Z,94627.00
2023-04-02T07:47:28.893Z,94625.00
2023-04-02T07:47:40.522Z,94625.00
2023-04-02T07:47:51.958Z,94625.00
2023-04-02T07:48:03.690Z,94623.00
2023-04-02T07:48:15.069Z,94625.00
2023-04-02T07:48:26.648Z,94629.00
2023-04-02T07:48:37.968Z,94627.00
2023-04-02T07:48:49.568Z,94627.00
2023-04-02T07:49:00.896Z,94627.00
2023-04-02T07:49:12.494Z,94629.00
2023-04-02T07:49:23.838Z,94627.00
2023-04-02T07:49:35.452Z,94631.00
2023-04-02T07:49:46.801Z,94629.00
2023-04-02T07:49:58.358Z,94629.00
2023-04-02T07:50:09.682Z,94629.00
2023-04-02T07:50:21.259Z,94631.00
2023-04-02T07:50:32.609Z,94631.00
2023-04-02T07:50:44.187Z,94631.00
2023-04-02T07:50:55.521Z,94639.00
2023-04-02T07:51:07.104Z,94639.00
2023-04-02T07:51:18.414Z,94631.00
2023-04-02T07:51:30.014Z,94639.00
2023-04-02T07:51:41.336Z,94629.00
2023-04-02T07:51:52.932Z,94639.00
2023-04-02T07:52:04.269Z,94639.00
2023-04-02T07:52:15.860Z,94639.00
2023-04-02T07:52:27.173Z,94639.00
2023-04-02T07:52:40.344Z,94641.00
2023-04-02T07:52:49.746Z,94641.00
2023-04-02T07:53:01.360Z,94641.00
2023-04-02T07:53:12.681Z,94641.00
2023-04-02T07:53:24.263Z,94641.00
2023-04-02T07:53:35.595Z,94643.00
2023-04-02T07:53:47.153Z,94639.00
2023-04-02T07:53:58.453Z,94639.00
2023-04-02T07:54:10.053Z,94641.00
2023-04-02T07:54:21.357Z,94639.00
2023-04-02T07:54:32.957Z,94639.00
2023-04-02T07:54:44.295Z,94639.00
2023-04-02T07:54:55.908Z,94631.00
2023-04-02T07:55:07.235Z,94629.00
2023-04-02T07:55:18.819Z,94629.00
2023-04-02T07:55:30.137Z,94631.00
2023-04-02T07:55:41.722Z,94627.00
2023-04-02T07:55:53.049Z,94627.00
2023-04-02T07:56:04.654Z,94627.00
2023-04-02T07:56:15.998Z,94627.00
2023-04-02T07:56:27.588Z,94625.00
2023-04-02T07:56:38.974Z,94625.00
2023-04-02T07:56:50.641Z,94625.00
2023-04-02T07:57:01.999Z,94625.00
2023-04-02T07:57:13.629Z,94625.00
2023-04-02T07:57:25.108Z,94625.00
2023-04-02T07:57:36.670Z,94623.00
2023-04-02T07:57:48.001Z,94625.00
2023-04-02T07:57:59.607Z,94625.00
2023-04-02T07:58:10.967Z,94627.00
2023-04-02T07:58:22.504Z,94625.00
2023-04-02T07:58:33.848Z,94627.00
2023-04-02T07:58:45.450Z,94629.00
2023-04-02T07:58:56.786Z,94625.00
2023-04-02T07:59:08.371Z,94627.00
2023-04-02T07:59:19.697Z,94627.00
2023-04-02T07:59:31.272Z,94629.00
2023-04-02T07:59:42.631Z,94629.00
2023-04-02T07:59:54.213Z,94629.00
2023-04-02T08:00:05.532Z,94627.00
2023-04-02T08:00:17.137Z,94627.00
2023-04-02T08:00:28.503Z,94629.00
2023-04-02T08:00:40.104Z,94627.00
2023-04-02T08:00:51.517Z,94627.00
2023-04-02T08:01:03.113Z,94639.00
2023-04-02T08:01:14.440Z,94639.00
2023-04-02T08:01:26.058Z,94631.00
2023-04-02T08:01:37.472Z,94631.00
2023-04-02T08:01:49.081Z,94629.00
2023-04-02T08:02:00.504Z,94631.00
2023-04-02T08:02:12.148Z,94631.00
2023-04-02T08:02:23.524Z,94631.00
2023-04-02T08:02:35.207Z,94639.00
2023-04-02T08:02:46.580Z,94631.00
2023-04-02T08:02:58.270Z,94631.00
2023-04-02T08:03:09.734Z,94639.00
2023-04-02T08:03:21.359Z,94629.00
2023-04-02T08:03:32.793Z,94629.00
2023-04-02T08:03:44.529Z,94629.00
2023-04-02T08:03:55.919Z,94631.00
2023-04-02T08:04:07.553Z,94639.00
2023-04-02T08:04:19.002Z,94631.00
2023-04-02T08:04:30.672Z,94627.00
2023-04-02T08:04:41.991Z,94631.00
2023-04-02T08:04:53.590Z,94629.00
2023-04-02T08:05:04.879Z,94631.00
2023-04-02T08:05:16.473Z,94629.00
2023-04-02T08:05:27.860Z,94639.00
2023-04-02T08:05:39.417Z,94639.00
2023-04-02T08:05:50.729Z,94639.00
2023-04-02T08:06:02.324Z,94641.00
2023-04-02T08:06:13.629Z,94639.00
2023-04-02T08:06:25.228Z,94639.00
2023-04-02T08:06:36.573Z,94641.00
2023-04-02T08:06:48.155Z,94641.00
2023-04-02T08:06:59.495Z,94639.00
2023-04-02T08:07:11.080Z,94641.00
2023-04-02T08:07:22.392Z,94643.00
2023-04-02T08:07:33.961Z,94643.00
2023-04-02T08:07:45.293Z,94643.00
2023-04-02T08:07:57.109Z,94645.00
2023-04-02T08:08:08.442Z,94643.00
2023-04-02T08:08:20.026Z,94643.00
2023-04-02T08:08:31.350Z,94643.00
2023-04-02T08:08:42.930Z,94645.00
2023-04-02T08:08:54.258Z,94643.00
2023-04-02T08:09:05.851Z,94645.00
2023-04-02T08:09:17.207Z,94645.00
2023-04-02T08:09:28.790Z,94645.00
2023-04-02T08:09:40.116Z,94645.00
2023-04-02T08:09:51.700Z,94643.00
2023-04-02T08:10:03.048Z,94643.00
2023-04-02T08:10:14.596Z,94645.00
2023-04-02T08:10:25.912Z,94643.00
2023-04-02T08:10:37.493Z,94645.00
2023-04-02T08:10:48.840Z,94643.00
2023-04-02T08:11:00.453Z,94643.00
2023-04-02T08:11:11.801Z,94641.00
2023-04-02T08:11:23.369Z,94645.00
2023-04-02T08:11:34.701Z,94645.00
2023-04-02T08:11:46.273Z,94643.00
2023-04-02T08:11:57.584Z,94646.00
2023-04-02T08:12:09.185Z,94643.00
2023-04-02T08:12:20.523Z,94645.00
2023-04-02T08:12:32.099Z,94645.00
2023-04-02T08:12:43.410Z,94645.00
2023-04-02T08:12:54.995Z,94645.00
2023-04-02T08:13:06.292Z,94645.00
2023-04-02T08:13:17.870Z,94648.00
2023-04-02T08:13:29.202Z,94648.00
2023-04-02T08:13:40.773Z,94646.00
2023-04-02T08:13:52.188Z,94646.00
2023-04-02T08:14:03.771Z,94646.00
2023-04-02T08:14:15.127Z,94646.00
2023-04-02T08:14:26.700Z,94646.00
2023-04-02T08:14:38.024Z,94646.00
2023-04-02T08:14:49.633Z,94645.00
2023-04-02T08:15:00.953Z,94646.00
2023-04-02T08:15:12.536Z,94645.00
2023-04-02T08:15:23.883Z,94648.00
2023-04-02T08:15:35.679Z,94648.00
2023-04-02T08:15:47.137Z,94648.00
2023-04-02T08:15:58.705Z,94646.00
2023-04-02T08:16:10.048Z,94646.00
2023-04-02T08:16:21.690Z,94643.00
2023-04-02T08:16:33.016Z,94645.00
2023-04-02T08:16:44.679Z,94645.00
2023-04-02T08:16:56.458Z,94645.00
2023-04-02T08:17:08.181Z,94648.00
2023-04-02T08:17:19.546Z,94648.00
2023-04-02T08:17:31.282Z,94646.00
2023-04-02T08:17:42.697Z,94646.00
2023-04-02T08:17:54.316Z,94648.00
2023-04-02T08:18:05.650Z,94646.00
2023-04-02T08:18:17.263Z,94648.00
2023-04-02T08:18:28.570Z,94648.00
2023-04-02T08:18:40.170Z,94646.00
2023-04-02T08:18:51.503Z,94648.00
2023-04-02T08:19:03.113Z,94646.00
2023-04-02T08:19:14.445Z,94648.00
2023-04-02T08:19:26.090Z,94650.00
2023-04-02T08:19:51.708Z,94650.00
2023-04-02T08:19:55.010Z,94646.00
2023-04-02T08:20:01.375Z,94646.00
2023-04-02T08:20:12.668Z,94648.00
2023-04-02T08:20:24.255Z,94646.00
2023-04-02T08:20:35.600Z,94652.00
2023-04-02T08:20:47.196Z,94652.00
2023-04-02T08:20:58.568Z,94650.00
2023-04-02T08:21:10.162Z,94652.00
2023-04-02T08:21:21.479Z,94648.00
2023-04-02T08:21:33.056Z,94650.00
2023-04-02T08:21:44.396Z,94652.00
2023-04-02T08:21:55.997Z,94652.00
2023-04-02T08:22:07.342Z,94650.00
2023-04-02T08:22:18.951Z,94650.00
2023-04-02T08:22:30.267Z,94648.00
2023-04-02T08:22:41.862Z,94648.00
2023-04-02T08:22:53.209Z,94650.00
2023-04-02T08:23:04.800Z,94648.00
2023-04-02T08:23:16.115Z,94648.00
2023-04-02T08:23:27.682Z,94650.00
2023-04-02T08:23:39.028Z,94652.00
2023-04-02T08:23:50.593Z,94650.00
2023-04-02T08:24:01.927Z,94650.00
2023-04-02T08:24:13.535Z,94648.00
2023-04-02T08:24:24.857Z,94652.00
2023-04-02T08:24:36.437Z,94648.00
2023-04-02T08:24:47.757Z,94648.00
2023-04-02T08:24:59.353Z,94646.00
2023-04-02T08:25:10.693Z,94650.00
2023-04-02T08:25:22.279Z,94648.00
2023-04-02T08:25:33.926Z,94650.00
2023-04-02T08:25:45.654Z,94648.00
2023-04-02T08:25:56.978Z,94650.00
2023-04-02T08:26:08.557Z,94652.00
2023-04-02T08:26:19.877Z,94652.00
2023-04-02T08:26:31.456Z,94652.00
2023-04-02T08:26:44.998Z,94652.00
2023-04-02T08:26:54.697Z,94652.00
2023-04-02T08:27:06.272Z,94652.00
2023-04-02T08:27:17.590Z,94652.00
2023-04-02T08:27:29.181Z,94650.00
2023-04-02T08:27:40.544Z,94652.00
2023-04-02T08:27:52.133Z,94650.00
2023-04-02T08:28:03.475Z,94652.00
2023-04-02T08:28:15.069Z,94652.00
2023-04-02T08:28:26.376Z,94652.00
2023-04-02T08:28:37.959Z,94652.00
2023-04-02T08:28:49.281Z,94652.00
2023-04-02T08:29:00.877Z,94650.00
2023-04-02T08:29:12.199Z,94650.00
2023-04-02T08:29:23.783Z,94650.00
2023-04-02T08:29:35.109Z,94650.00
2023-04-02T08:29:46.681Z,94654.00
2023-04-02T08:29:58.025Z,94650.00
2023-04-02T08:30:09.645Z,94648.00
2023-04-02T08:30:20.999Z,94648.00
2023-04-02T08:30:32.600Z,94650.00
2023-04-02T08:30:43.944Z,94650.00
2023-04-02T08:30:55.589Z,94648.00
2023-04-02T08:31:06.964Z,94648.00
2023-04-02T08:31:18.613Z,94648.00
2023-04-02T08:31:30.023Z,94648.00
2023-04-02T08:31:41.592Z,94650.00
2023-04-02T08:31:52.916Z,94650.00
2023-04-02T08:32:04.504Z,94650.00
2023-04-02T08:32:15.823Z,94650.00
2023-04-02T08:32:27.398Z,94650.00
2023-04-02T08:32:38.735Z,94652.00
2023-04-02T08:32:50.365Z,94650.00
2023-04-02T08:33:01.698Z,94652.00
2023-04-02T08:33:13.298Z,94648.00
2023-04-02T08:33:24.633Z,94648.00
2023-04-02T08:33:36.211Z,94648.00
2023-04-02T08:33:47.550Z,94652.00
2023-04-02T08:33:59.153Z,94648.00
2023-04-02T08:34:10.478Z,94648.00
2023-04-02T08:34:22.045Z,94646.00
2023-04-02T08:34:33.361Z,94646.00
2023-04-02T08:34:44.947Z,94646.00
2023-04-02T08:34:56.264Z,94646.00
2023-04-02T08:35:07.875Z,94650.00
2023-04-02T08:35:19.202Z,94648.00
2023-04-02T08:35:30.764Z,94650.00
2023-04-02T08:35:42.124Z,94648.00
2023-04-02T08:35:53.732Z,94646.00
2023-04-02T08:36:05.063Z,94648.00
2023-04-02T08:36:16.687Z,94648.00
2023-04-02T08:36:28.129Z,94646.00
2023-04-02T08:36:39.704Z,94646.00
2023-04-02T08:36:51.035Z,94648.00
2023-04-02T08:37:02.613Z,94646.00
2023-04-02T08:37:13.949Z,94646.00
2023-04-02T08:37:25.560Z,94646.00
2023-04-02T08:37:36.901Z,94646.00
2023-04-02T08:37:48.494Z,94648.00
2023-04-02T08:37:59.839Z,94648.00
2023-04-02T08:38:11.409Z,94648.00
2023-04-02T08:38:22.719Z,94650.00
2023-04-02T08:38:34.392Z,94650.00
2023-04-02T08:38:45.713Z,94648.00
2023-04-02T08:38:57.310Z,94650.00
2023-04-02T08:39:08.625Z,94650.00
2023-04-02T08:39:20.218Z,94646.00
2023-04-02T08:39:31.543Z,94650.00
2023-04-02T08:39:43.155Z,94650.00
2023-04-02T08:39:54.475Z,94650.00
2023-04-02T08:40:06.083Z,94650.00
2023-04-02T08:40:17.397Z,94650.00
2023-04-02T08:40:29.000Z,94650.00
2023-04-02T08:40:40.345Z,94656.00
2023-04-02T08:40:51.971Z,94658.00
2023-04-02T08:41:03.275Z,94658.00
2023-04-02T08:41:14.870Z,94658.00
2023-04-02T08:41:26.212Z,94658.00
2023-04-02T08:41:37.796Z,94658.00
2023-04-02T08:41:49.145Z,94658.00
2023-04-02T08:42:00.778Z,94658.00
2023-04-02T08:42:12.103Z,94658.00
2023-04-02T08:42:23.669Z,94658.00
2023-04-02T08:42:34.976Z,94658.00
2023-04-02T08:42:46.566Z,94662.00
2023-04-02T08:42:57.878Z,94658.00
2023-04-02T08:43:09.459Z,94662.00
2023-04-02T08:43:22.377Z,94660.00
2023-04-02T08:43:32.677Z,94662.00
2023-04-02T08:43:44.302Z,94660.00
2023-04-02T08:43:55.621Z,94660.00
2023-04-02T08:44:07.212Z,94662.00
2023-04-02T08:44:18.535Z,94664.00
2023-04-02T08:44:30.131Z,94662.00
2023-04-02T08:44:41.448Z,94662.00
2023-04-02T08:44:53.020Z,94660.00
2023-04-02T08:45:13.755Z,94660.00
2023-04-02T08:45:24.962Z,94660.00
2023-04-02T08:45:28.298Z,94658.00
2023-04-02T08:45:39.846Z,94658.00
2023-04-02T08:45:51.552Z,94660.00
2023-04-02T08:46:02.876Z,94662.00
2023-04-02T08:46:14.493Z,94662.00
2023-04-02T08:46:25.855Z,94660.00
2023-04-02T08:46:48.734Z,94662.00
2023-04-02T08:47:00.334Z,94660.00
2023-04-02T08:47:11.679Z,94662.00
2023-04-02T08:47:23.272Z,94660.00
2023-04-02T08:47:34.644Z,94660.00
2023-04-02T08:47:46.222Z,94660.00
2023-04-02T08:47:57.666Z,94660.00
2023-04-02T08:48:09.272Z,94658.00
2023-04-02T08:48:20.627Z,94660.00
2023-04-02T08:48:32.228Z,94658.00
2023-04-02T08:48:43.549Z,94658.00
2023-04-02T08:48:55.192Z,94660.00
2023-04-02T08:49:06.514Z,94658.00
2023-04-02T08:49:18.112Z,94660.00
2023-04-02T08:49:29.440Z,94660.00
2023-04-02T08:49:41.012Z,94658.00
2023-04-02T08:49:52.350Z,94660.00
2023-04-02T08:50:03.932Z,94658.00
2023-04-02T08:50:15.281Z,94658.00
2023-04-02T08:50:26.847Z,94656.00
2023-04-02T08:50:38.166Z,94656.00
2023-04-02T08:50:49.745Z,94658.00
2023-04-02T08:51:01.066Z,94660.00
2023-04-02T08:51:12.637Z,94658.00
2023-04-02T08:51:23.957Z,94658.00
2023-04-02T08:51:35.547Z,94660.00
2023-04-02T08:51:46.865Z,94660.00
2023-04-02T08:51:58.437Z,94660.00
2023-04-02T08:52:09.752Z,94658.00
2023-04-02T08:52:21.314Z,94658.00
2023-04-02T08:52:32.641Z,94656.00
2023-04-02T08:52:44.226Z,94658.00
2023-04-02T08:52:55.548Z,94656.00
2023-04-02T08:53:07.176Z,94656.00
2023-04-02T08:53:18.468Z,94656.00
2023-04-02T08:53:30.039Z,94654.00
2023-04-02T08:53:41.400Z,94658.00
2023-04-02T08:53:52.979Z,94654.00
2023-04-02T08:54:04.337Z,94656.00
2023-04-02T08:54:15.920Z,94658.00
2023-04-02T08:54:27.988Z,94656.00
2023-04-02T08:54:37.289Z,94656.00
2023-04-02T08:54:48.880Z,94656.00
2023-04-02T08:55:00.191Z,94658.00
2023-04-02T08:55:11.778Z,94654.00
2023-04-02T08:55:23.105Z,94656.00
2023-04-02T08:55:35.028Z,94658.00
2023-04-02T08:55:46.870Z,94654.00
2023-04-02T08:55:58.173Z,94656.00
2023-04-02T08:56:09.766Z,94658.00
2023-04-02T08:56:21.065Z,94658.00
2023-04-02T08:56:32.691Z,94656.00
2023-04-02T08:56:43.998Z,94656.00
2023-04-02T08:56:55.624Z,94658.00
2023-04-02T08:57:06.941Z,94658.00
2023-04-02T08:57:18.594Z,94658.00
2023-04-02T08:57:29.916Z,94658.00
2023-04-02T08:57:41.551Z,94658.00
2023-04-02T08:57:52.875Z,94658.00
2023-04-02T08:58:04.433Z,94658.00
2023-04-02T08:58:15.777Z,94658.00
2023-04-02T08:58:27.355Z,94658.00
2023-04-02T08:58:38.674Z,94660.00
2023-04-02T08:58:50.245Z,94658.00
2023-04-02T08:59:01.565Z,94660.00
2023-04-02T08:59:13.178Z,94662.00
2023-04-02T08:59:24.510Z,94662.00
2023-04-02T08:59:36.087Z,94660.00
2023-04-02T08:59:47.422Z,94660.00
2023-04-02T08:59:59.000Z,94660.00
2023-04-02T09:00:10.334Z,94658.00
2023-04-02T09:00:21.904Z,94658.00
2023-04-02T09:00:33.374Z,94660.00
2023-04-02T09:00:44.955Z,94658.00
2023-04-02T09:00:56.298Z,94658.00
2023-04-02T09:01:07.887Z,94662.00
2023-04-02T09:01:19.221Z,94660.00
2023-04-02T09:01:30.846Z,94656.00
2023-04-02T09:01:42.284Z,94658.00
2023-04-02T09:01:53.941Z,94660.00
2023-04-02T09:02:05.374Z,94656.00
2023-04-02T09:02:16.990Z,94658.00
2023-04-02T09:02:28.384Z,94654.00
2023-04-02T09:02:40.054Z,94656.00
2023-04-02T09:02:51.379Z,94658.00
2023-04-02T09:03:03.109Z,94656.00
2023-04-02T09:03:14.480Z,94654.00
2023-04-02T09:03:26.060Z,94654.00
2023-04-02T09:03:37.404Z,94656.00
2023-04-02T09:03:48.983Z,94654.00
2023-04-02T09:04:00.325Z,94652.00
2023-04-02T09:04:11.902Z,94652.00
2023-04-02T09:04:23.345Z,94652.00
2023-04-02T09:04:34.944Z,94654.00
2023-04-02T09:04:46.320Z,94652.00
2023-04-02T09:04:57.986Z,94652.00
2023-04-02T09:05:09.436Z,94650.00
2023-04-02T09:05:21.051Z,94652.00
2023-04-02T09:05:32.419Z,94654.00
2023-04-02T09:05:43.996Z,94652.00
2023-04-02T09:05:55.330Z,94654.00
2023-04-02T09:06:06.918Z,94652.00
2023-04-02T09:06:18.258Z,94654.00
2023-04-02T09:06:29.832Z,94650.00
2023-04-02T09:06:41.156Z,94652.00
2023-04-02T09:06:52.791Z,94652.00
2023-04-02T09:07:04.113Z,94652.00
2023-04-02T09:07:15.710Z,94652.00
2023-04-02T09:07:27.036Z,94650.00
2023-04-02T09:07:38.620Z,94650.00
2023-04-02T09:07:49.966Z,94652.00
2023-04-02T09:08:01.533Z,94654.00
2023-04-02T09:08:12.847Z,94652.00
2023-04-02T09:08:24.445Z,94650.00
2023-04-02T09:08:35.767Z,94652.00
2023-04-02T09:08:47.336Z,94654.00
2023-04-02T09:08:58.656Z,94656.00
2023-04-02T09:09:10.252Z,94656.00
2023-04-02T09:09:21.572Z,94652.00
2023-04-02T09:09:33.194Z,94654.00
2023-04-02T09:09:44.514Z,94654.00
2023-04-02T09:09:56.088Z,94650.00
2023-04-02T09:10:07.449Z,94650.00
2023-04-02T09:10:19.019Z,94652.00
2023-04-02T09:10:30.374Z,94650.00
2023-04-02T09:10:41.989Z,94648.00
2023-04-02T09:10:53.335Z,94648.00
2023-04-02T09:11:04.902Z,94650.00
2023-04-02T09:11:16.214Z,94646.00
2023-04-02T09:11:27.810Z,94648.00
2023-04-02T09:11:39.122Z,94648.00
2023-04-02T09:11:50.702Z,94646.00
2023-04-02T09:12:02.029Z,94650.00
2023-04-02T09:12:13.628Z,94648.00
2023-04-02T09:12:25.000Z,94650.00
2023-04-02T09:12:36.585Z,94650.00
2023-04-02T09:12:47.917Z,94648.00
2023-04-02T09:12:59.472Z,94648.00
2023-04-02T09:13:10.793Z,94648.00
2023-04-02T09:13:22.374Z,94648.00
2023-04-02T09:13:33.698Z,94648.00
2023-04-02T09:13:45.287Z,94648.00
2023-04-02T09:13:56.610Z,94648.00
2023-04-02T09:14:08.174Z,94648.00
2023-04-02T09:14:19.508Z,94646.00
2023-04-02T09:14:31.095Z,94648.00
2023-04-02T09:14:42.434Z,94646.00
2023-04-02T09:14:54.062Z,94650.00
2023-04-02T09:15:05.397Z,94648.00
2023-04-02T09:15:16.960Z,94650.00
2023-04-02T09:15:28.308Z,94648.00
2023-04-02T09:15:39.921Z,94646.00
2023-04-02T09:15:51.269Z,94646.00
2023-04-02T09:16:02.889Z,94646.00
2023-04-02T09:16:14.331Z,94646.00
2023-04-02T09:16:25.998Z,94648.00
2023-04-02T09:16:37.333Z,94646.00
2023-04-02T09:16:48.925Z,94648.00
2023-04-02T09:17:00.252Z,94648.00
2023-04-02T09:17:11.846Z,94648.00
2023-04-02T09:17:23.178Z,94648.00
2023-04-02T09:17:42.763Z,94648.00
2023-04-02T09:17:54.126Z,94650.00
2023-04-02T09:17:59.634Z,94652.00
2023-04-02T09:18:08.953Z,94650.00
2023-04-02T09:18:20.568Z,94650.00
2023-04-02T09:18:31.975Z,94650.00
2023-04-02T09:18:43.605Z,94652.00
2023-04-02T09:18:54.898Z,94652.00
2023-04-02T09:19:06.477Z,94650.00
2023-04-02T09:19:17.801Z,94652.00
2023-04-02T09:19:29.370Z,94650.00
2023-04-02T09:19:40.708Z,94654.00
2023-04-02T09:19:52.294Z,94652.00
2023-04-02T09:20:03.634Z,94652.00
2023-04-02T09:20:15.207Z,94652.00
2023-04-02T09:20:26.599Z,94650.00
2023-04-02T09:20:38.226Z,94652.00
2023-04-02T09:20:49.586Z,94652.00
2023-04-02T09:21:01.173Z,94650.00
2023-04-02T09:21:12.484Z,94652.00
2023-04-02T09:21:24.052Z,94650.00
2023-04-02T09:21:35.388Z,94650.00
2023-04-02T09:21:47.002Z,94652.00
2023-04-02T09:21:58.321Z,94652.00
2023-04-02T09:22:09.905Z,94650.00
2023-04-02T09:22:21.203Z,94652.00
2023-04-02T09:22:32.793Z,94652.00
2023-04-02T09:22:44.112Z,94652.00
2023-04-02T09:22:55.686Z,94648.00
2023-04-02T09:23:07.040Z,94650.00
2023-04-02T09:23:18.639Z,94650.00
2023-04-02T09:23:29.973Z,94648.00
2023-04-02T09:23:41.578Z,94648.00
2023-04-02T09:23:52.909Z,94648.00
2023-04-02T09:24:05.230Z,94648.00
2023-04-02T09:24:14.528Z,94646.00
2023-04-02T09:24:26.097Z,94646.00
2023-04-02T09:24:37.422Z,94648.00
2023-04-02T09:24:49.003Z,94646.00
2023-04-02T09:25:00.320Z,94648.00
2023-04-02T09:25:11.910Z,94646.00
2023-04-02T09:25:23.238Z,94646.00
2023-04-02T09:25:35.088Z,94645.00
2023-04-02T09:25:54.098Z,94646.00
2023-04-02T09:26:04.555Z,94645.00
2023-04-02T09:26:10.516Z,94646.00
2023-04-02T09:26:21.846Z,94648.00
2023-04-02T09:26:33.453Z,94645.00
2023-04-02T09:26:44.768Z,94645.00
2023-04-02T09:26:56.343Z,94645.00
2023-04-02T09:27:07.665Z,94643.00
2023-04-02T09:27:19.256Z,94643.00
2023-04-02T09:27:30.623Z,94646.00
2023-04-02T09:27:42.239Z,94646.00
2023-04-02T09:27:53.551Z,94645.00
2023-04-02T09:28:05.138Z,94645.00
2023-04-02T09:28:16.466Z,94643.00
2023-04-02T09:28:28.095Z,94643.00
2023-04-02T09:28:39.401Z,94643.00
2023-04-02T09:28:50.997Z,94643.00
2023-04-02T09:29:02.346Z,94643.00
2023-04-02T09:29:13.919Z,94643.00
2023-04-02T09:29:25.245Z,94643.00
2023-04-02T09:29:36.803Z,94641.00
2023-04-02T09:29:48.131Z,94641.00
2023-04-02T09:29:59.717Z,94641.00
2023-04-02T09:30:11.054Z,94639.00
2023-04-02T09:30:22.649Z,94641.00
2023-04-02T09:30:33.950Z,94643.00
2023-04-02T09:30:45.538Z,94641.00
2023-04-02T09:30:56.884Z,94643.00
2023-04-02T09:31:08.503Z,94639.00
2023-04-02T09:31:19.878Z,94639.00
2023-04-02T09:31:31.544Z,94641.00
2023-04-02T09:31:42.901Z,94639.00
2023-04-02T09:31:54.544Z,94639.00
2023-04-02T09:32:05.882Z,94639.00
2023-04-02T09:32:17.462Z,94631.00
2023-04-02T09:32:28.813Z,94631.00
2023-04-02T09:32:40.444Z,94631.00
2023-04-02T09:32:51.851Z,94631.00
2023-04-02T09:33:03.447Z,94629.00
2023-04-02T09:33:14.815Z,94629.00
2023-04-02T09:33:26.432Z,94629.00
2023-04-02T09:33:37.752Z,94631.00
2023-04-02T09:33:49.339Z,94629.00
2023-04-02T09:34:00.667Z,94639.00
2023-04-02T09:34:12.213Z,94639.00
2023-04-02T09:34:23.522Z,94631.00
2023-04-02T09:34:35.096Z,94639.00
2023-04-02T09:34:46.401Z,94639.00
2023-04-02T09:34:57.968Z,94639.00
2023-04-02T09:35:18.368Z,94631.00
2023-04-02T09:35:26.074Z,94639.00
2023-04-02T09:35:33.288Z,94641.00
2023-04-02T09:35:44.675Z,94639.00
2023-04-02T09:35:56.322Z,94641.00
2023-04-02T09:36:07.759Z,94641.00
2023-04-02T09:36:19.369Z,94631.00
2023-04-02T09:36:30.754Z,94639.00
2023-04-02T09:36:42.321Z,94639.00
2023-04-02T09:36:53.634Z,94631.00
2023-04-02T09:37:05.212Z,94631.00
2023-04-02T09:37:16.531Z,94639.00
2023-04-02T09:37:28.131Z,94631.00
2023-04-02T09:37:39.452Z,94629.00
2023-04-02T09:37:51.019Z,94643.00
2023-04-02T09:38:02.339Z,94631.00
2023-04-02T09:38:13.944Z,94643.00
2023-04-02T09:38:25.252Z,94641.00
2023-04-02T09:38:36.835Z,94643.00
2023-04-02T09:38:48.163Z,94641.00
2023-04-02T09:38:59.744Z,94639.00
2023-04-02T09:39:11.081Z,94641.00
2023-04-02T09:39:22.700Z,94641.00
2023-04-02T09:39:34.049Z,94641.00
2023-04-02T09:39:45.657Z,94641.00
2023-04-02T09:39:56.955Z,94641.00
2023-04-02T09:40:08.531Z,94641.00
2023-04-02T09:40:19.865Z,94641.00
2023-04-02T09:40:31.436Z,94641.00
2023-04-02T09:40:42.766Z,94639.00
2023-04-02T09:40:54.351Z,94641.00
2023-04-02T09:41:05.660Z,94641.00
2023-04-02T09:41:17.253Z,94641.00
2023-04-02T09:41:28.564Z,94641.00
2023-04-02T09:41:40.173Z,94639.00
2023-04-02T09:42:02.777Z,94639.00
2023-04-02T09:42:06.016Z,94641.00
2023-04-02T09:42:15.271Z,94639.00
2023-04-02T09:42:26.845Z,94639.00
2023-04-02T09:42:38.198Z,94639.00
2023-04-02T09:42:49.760Z,94639.00
2023-04-02T09:43:01.110Z,94631.00
2023-04-02T09:43:12.693Z,94631.00
2023-04-02T09:43:24.001Z,94631.00
2023-04-02T09:43:35.588Z,94631.00
2023-04-02T09:43:46.938Z,94629.00
2023-04-02T09:43:58.511Z,94629.00
2023-04-02T09:44:09.834Z,94627.00
2023-04-02T09:44:21.450Z,94631.00
2023-04-02T09:44:32.786Z,94631.00
2023-04-02T09:44:44.376Z,94627.00
2023-04-02T09:44:55.711Z,94631.00
2023-04-02T09:45:07.282Z,94629.00
2023-04-02T09:45:18.610Z,94629.00
2023-04-02T09:45:30.183Z,94627.00
2023-04-02T09:45:41.490Z,94627.00
2023-04-02T09:45:53.044Z,94629.00
2023-04-02T09:46:04.363Z,94627.00
2023-04-02T09:46:15.980Z,94629.00
2023-04-02T09:46:27.371Z,94629.00
2023-04-02T09:46:38.996Z,94631.00
2023-04-02T09:46:50.366Z,94639.00
2023-04-02T09:47:01.988Z,94639.00
2023-04-02T09:47:13.356Z,94631.00
2023-04-02T09:47:24.981Z,94639.00
2023-04-02T09:47:37.216Z,94631.00
2023-04-02T09:47:46.506Z,94641.00
2023-04-02T09:47:58.143Z,94641.00
2023-04-02T09:48:09.462Z,94641.00
2023-04-02T09:48:21.032Z,94641.00
2023-04-02T09:48:32.368Z,94641.00
2023-04-02T09:48:44.000Z,94641.00
2023-04-02T09:48:55.316Z,94643.00
2023-04-02T09:49:06.900Z,94641.00
2023-04-02T09:49:18.219Z,94641.00
2023-04-02T09:49:29.816Z,94641.00